Time;durP1;ratioP1;P1;durP2;ratioP2;P2;SDS_P1;SDS_P2;PMS_P1;PMS_P2;Temp;Humidity;BMP_temperature;BMP_pressure;BME280_temperature;BME280_humidity;BME280_pressure;Samples;Min_cycle;Max_cycle;Signal;HPM_P1;HPM_P2
2023/03/20 00:00:48;;;;;;;15.82;3.15;;;7.90;99.90;;;;;;5046348;28;20120;-43
2023/03/20 00:03:14;;;;;;;19.50;3.15;;;7.90;99.90;;;;;;5043507;28;20025;-46
2023/03/20 00:05:40;;;;;;;18.48;2.35;;;8.00;99.90;;;;;;5045484;28;20090;-48
2023/03/20 00:08:07;;;;;;;13.13;2.28;;;8.00;99.90;;;;;;5044535;28;20029;-45
2023/03/20 00:10:40;;;;;;;17.15;2.55;;;8.10;99.90;;;;;;5045748;28;20390;-44
2023/03/20 00:13:09;;;;;;;14.90;2.55;;;8.00;99.90;;;;;;5050192;28;20032;-46
2023/03/20 00:15:37;;;;;;;11.75;2.70;;;8.10;99.90;;;;;;5049901;28;20043;-43
2023/03/20 00:18:17;;;;;;;17.55;2.45;;;8.10;99.90;;;;;;5050270;28;20095;-45
2023/03/20 00:20:45;;;;;;;14.30;2.83;;;8.10;99.90;;;;;;5050110;28;20034;-43
2023/03/20 00:23:10;;;;;;;9.57;2.50;;;8.10;99.90;;;;;;5048812;28;20021;-43
2023/03/20 00:25:38;;;;;;;15.00;2.17;;;8.10;99.90;;;;;;5050106;28;20494;-46
2023/03/20 00:28:35;;;;;;;14.90;2.83;;;8.10;99.90;;;;;;5050004;28;20029;-48
2023/03/20 00:31:00;;;;;;;15.32;2.75;;;8.20;99.90;;;;;;5050010;28;20041;-45
2023/03/20 00:33:27;;;;;;;17.98;2.67;;;8.10;99.90;;;;;;5050216;28;20028;-45
2023/03/20 00:35:52;;;;;;;15.85;2.60;;;8.10;99.90;;;;;;5050161;28;20025;-46
2023/03/20 00:38:18;;;;;;;11.73;2.45;;;8.10;99.90;;;;;;5050048;28;20028;-46
2023/03/20 00:40:44;;;;;;;13.45;2.40;;;8.10;99.90;;;;;;5050377;28;20027;-49
2023/03/20 00:43:12;;;;;;;16.98;3.63;;;8.10;99.90;;;;;;5050056;28;20018;-44
2023/03/20 00:45:38;;;;;;;8.40;2.40;;;8.00;99.90;;;;;;5032322;28;20032;-45
2023/03/20 00:48:04;;;;;;;17.08;2.80;;;8.10;99.90;;;;;;5050176;28;20055;-43
2023/03/20 00:50:30;;;;;;;17.75;3.05;;;8.10;99.90;;;;;;5050219;28;20029;-51
2023/03/20 00:52:58;;;;;;;15.77;3.20;;;8.10;99.90;;;;;;5041099;28;20101;-44
2023/03/20 00:55:26;;;;;;;17.52;3.35;;;8.20;99.90;;;;;;5049941;28;20028;-46
2023/03/20 00:58:00;;;;;;;20.33;2.57;;;8.20;99.90;;;;;;5050000;28;20104;-44
2023/03/20 01:00:39;;;;;;;18.02;2.90;;;8.20;99.90;;;;;;5049928;28;20103;-42
2023/03/20 01:03:22;;;;;;;17.88;3.67;;;8.30;99.90;;;;;;5050206;28;20048;-42
2023/03/20 01:05:49;;;;;;;19.73;3.47;;;8.30;99.90;;;;;;5038077;28;20017;-55
2023/03/20 01:08:23;;;;;;;13.02;2.60;;;8.30;99.90;;;;;;5050888;28;20047;-44
2023/03/20 01:10:53;;;;;;;18.33;2.97;;;8.30;99.90;;;;;;5053825;28;20021;-42
2023/03/20 01:13:23;;;;;;;;;;;8.30;99.90;;;;;;5054159;28;20033;-52
2023/03/20 01:15:51;;;;;;;16.80;2.85;;;8.30;99.90;;;;;;5035543;28;19913;-52
2023/03/20 01:18:18;;;;;;;14.93;2.70;;;8.30;99.90;;;;;;5053314;28;20058;-50
2023/03/20 01:20:45;;;;;;;23.90;3.75;;;8.30;99.90;;;;;;5035398;28;20444;-42
2023/03/20 01:23:11;;;;;;;20.30;2.83;;;8.30;99.90;;;;;;5049694;28;20075;-47
2023/03/20 01:25:37;;;;;;;15.63;2.80;;;8.30;99.90;;;;;;5053450;28;20040;-52
2023/03/20 01:28:13;;;;;;;15.23;3.33;;;8.30;99.90;;;;;;5052596;28;20465;-44
2023/03/20 01:30:39;;;;;;;10.40;2.38;;;8.30;99.90;;;;;;5053353;28;20025;-43
2023/03/20 01:33:16;;;;;;;15.50;2.70;;;8.40;99.90;;;;;;5053311;28;20470;-54
2023/03/20 01:35:43;;;;;;;11.18;2.53;;;8.40;99.90;;;;;;5053253;28;20065;-48
2023/03/20 01:38:20;;;;;;;18.10;2.70;;;8.40;99.90;;;;;;5050492;28;20055;-52
2023/03/20 01:40:51;;;;;;;15.02;2.90;;;8.40;99.90;;;;;;5034957;28;20481;-43
2023/03/20 01:43:19;;;;;;;20.92;2.83;;;8.40;99.90;;;;;;5051914;28;20025;-45
2023/03/20 01:46:00;;;;;;;15.75;2.90;;;8.50;99.90;;;;;;5052556;28;20074;-44
2023/03/20 01:48:56;;;;;;;19.63;2.78;;;8.50;99.90;;;;;;5051866;28;20103;-42
2023/03/20 01:51:24;;;;;;;14.02;2.33;;;8.50;99.90;;;;;;5041437;28;20571;-46
2023/03/20 01:53:59;;;;;;;14.07;2.53;;;8.50;99.90;;;;;;5052867;28;20621;-49
2023/03/20 01:56:29;;;;;;;17.42;2.97;;;8.50;99.90;;;;;;5052625;28;20033;-50
2023/03/20 01:59:20;;;;;;;18.33;2.90;;;8.50;99.90;;;;;;5052827;28;20033;-51
2023/03/20 02:01:46;;;;;;;18.25;3.00;;;8.60;99.90;;;;;;5051973;28;20147;-57
2023/03/20 02:04:14;;;;;;;13.35;2.33;;;8.60;99.90;;;;;;5052518;28;20039;-51
2023/03/20 02:06:41;;;;;;;29.20;3.60;;;8.60;99.90;;;;;;5052371;28;20539;-49
2023/03/20 02:09:07;;;;;;;16.23;3.08;;;8.60;99.90;;;;;;5052754;28;20029;-47
2023/03/20 02:11:34;;;;;;;16.75;3.22;;;8.60;99.90;;;;;;5052570;28;20043;-48
2023/03/20 02:14:00;;;;;;;17.50;3.20;;;8.60;99.90;;;;;;5052530;28;20386;-52
2023/03/20 02:16:26;;;;;;;14.73;2.78;;;8.60;99.90;;;;;;5049524;28;20014;-46
2023/03/20 02:18:55;;;;;;;15.60;2.90;;;8.60;99.90;;;;;;5045940;28;20029;-43
2023/03/20 02:22:02;;;;;;;16.77;2.70;;;8.60;99.90;;;;;;5038640;28;20037;-48
2023/03/20 02:25:01;;;;;;;19.17;2.67;;;8.60;99.90;;;;;;4971268;28;20034;-46
2023/03/20 02:27:50;;;;;;;16.25;3.10;;;8.60;99.90;;;;;;5046417;28;20093;-45
2023/03/20 02:30:45;;;;;;;16.83;2.67;;;8.50;99.90;;;;;;5052314;28;20086;-42
2023/03/20 02:33:26;;;;;;;17.23;2.38;;;8.60;99.90;;;;;;5024643;28;20029;-43
2023/03/20 02:35:51;;;;;;;15.55;2.78;;;8.60;99.90;;;;;;5051858;28;20035;-43
2023/03/20 02:38:29;;;;;;;18.60;2.50;;;8.50;99.90;;;;;;5051971;28;20107;-43
2023/03/20 02:41:24;;;;;;;19.90;3.25;;;8.60;99.90;;;;;;5052128;28;20025;-48
2023/03/20 02:44:06;;;;;;;17.30;2.65;;;8.50;99.90;;;;;;5041234;28;20055;-45
2023/03/20 02:46:58;;;;;;;14.73;2.63;;;8.50;99.90;;;;;;5029959;28;20088;-48
2023/03/20 02:49:32;;;;;;;14.32;2.70;;;8.50;99.90;;;;;;5030293;28;20020;-43
2023/03/20 02:52:05;;;;;;;14.35;2.90;;;8.50;99.90;;;;;;5051649;28;20029;-43
2023/03/20 02:54:41;;;;;;;21.08;3.10;;;8.40;99.90;;;;;;5051373;28;20046;-47
2023/03/20 02:57:26;;;;;;;15.45;2.15;;;8.40;99.90;;;;;;5051630;28;20489;-44
2023/03/20 02:59:58;;;;;;;17.38;2.83;;;8.30;99.90;;;;;;5051800;28;20033;-47
2023/03/20 03:02:50;;;;;;;18.65;2.75;;;8.30;99.90;;;;;;5037564;28;20021;-43
2023/03/20 03:05:23;;;;;;;15.35;3.03;;;8.20;99.90;;;;;;5051291;28;20021;-51
2023/03/20 03:07:51;;;;;;;18.42;2.60;;;8.20;99.90;;;;;;5051420;28;20036;-47
2023/03/20 03:10:23;;;;;;;23.90;3.10;;;8.20;99.90;;;;;;5051421;28;20033;-43
2023/03/20 03:12:51;;;;;;;17.33;3.35;;;8.10;99.90;;;;;;5050410;28;20021;-42
2023/03/20 03:15:36;;;;;;;16.35;2.90;;;8.00;99.90;;;;;;5039367;28;20056;-45
2023/03/20 03:18:05;;;;;;;16.40;3.75;;;8.00;99.90;;;;;;5039464;28;20052;-46
2023/03/20 03:20:35;;;;;;;16.10;2.70;;;7.90;99.90;;;;;;5050863;28;20036;-48
2023/03/20 03:23:01;;;;;;;22.33;3.92;;;7.90;99.90;;;;;;5049829;28;20017;-47
2023/03/20 03:25:30;;;;;;;21.13;3.00;;;7.90;99.90;;;;;;5051128;28;20060;-43
2023/03/20 03:28:21;;;;;;;15.23;3.03;;;7.90;99.90;;;;;;5051020;28;20146;-42
2023/03/20 03:30:48;;;;;;;17.45;3.38;;;7.90;99.90;;;;;;5050506;28;20025;-43
2023/03/20 03:33:20;;;;;;;23.30;3.05;;;7.90;99.90;;;;;;5050695;28;20029;-42
2023/03/20 03:35:47;;;;;;;18.00;3.22;;;7.90;99.90;;;;;;5050656;28;20033;-49
2023/03/20 03:38:28;;;;;;;19.35;3.13;;;7.90;99.90;;;;;;5050515;28;20056;-44
2023/03/20 03:41:05;;;;;;;15.15;3.08;;;7.90;99.90;;;;;;5050682;28;20074;-45
2023/03/20 03:43:51;;;;;;;17.33;3.45;;;7.90;99.90;;;;;;5048752;28;20505;-43
2023/03/20 03:46:25;;;;;;;17.63;2.83;;;8.00;99.90;;;;;;5047259;28;20064;-43
2023/03/20 03:48:55;;;;;;;16.20;3.40;;;8.20;99.90;;;;;;5050805;28;20421;-43
2023/03/20 03:51:22;;;;;;;;;;;8.20;99.90;;;;;;5051262;28;20040;-46
2023/03/20 03:54:01;;;;;;;16.63;3.22;;;8.20;99.90;;;;;;5050809;28;19985;-44
2023/03/20 03:56:30;;;;;;;17.63;3.00;;;8.30;99.90;;;;;;5050511;28;20164;-46
2023/03/20 03:59:02;;;;;;;14.27;3.63;;;8.30;99.90;;;;;;5050724;28;20362;-47
2023/03/20 04:01:34;;;;;;;16.50;2.70;;;8.30;99.90;;;;;;5050269;28;20116;-53
2023/03/20 04:04:02;;;;;;;16.70;3.00;;;8.40;99.90;;;;;;5050921;28;20194;-47
2023/03/20 04:06:28;;;;;;;13.73;2.58;;;8.40;99.90;;;;;;5032638;28;20036;-45
2023/03/20 04:08:53;;;;;;;17.83;3.10;;;8.40;99.90;;;;;;5032461;28;20486;-52
2023/03/20 04:11:23;;;;;;;23.48;3.85;;;8.40;99.90;;;;;;5050720;28;20037;-42
2023/03/20 04:13:50;;;;;;;24.40;3.92;;;8.50;99.90;;;;;;5031385;28;20028;-51
2023/03/20 04:16:17;;;;;;;15.63;3.00;;;8.50;99.90;;;;;;5050161;28;20082;-46
2023/03/20 04:18:44;;;;;;;20.08;3.30;;;8.50;99.90;;;;;;5048736;28;20075;-52
2023/03/20 04:21:10;;;;;;;22.23;3.40;;;8.50;99.90;;;;;;5049598;28;20029;-45
2023/03/20 04:23:36;;;;;;;24.50;3.20;;;8.50;99.90;;;;;;5050178;28;20472;-42
2023/03/20 04:26:03;;;;;;;19.75;3.15;;;8.50;99.90;;;;;;5050285;28;20025;-42
2023/03/20 04:28:29;;;;;;;16.30;3.45;;;8.50;99.90;;;;;;5050218;28;20025;-45
2023/03/20 04:30:56;;;;;;;16.35;3.10;;;8.60;99.90;;;;;;5050478;28;20087;-46
2023/03/20 04:33:23;;;;;;;16.35;2.50;;;8.60;99.90;;;;;;5050273;28;20076;-46
2023/03/20 04:35:49;;;;;;;19.45;3.03;;;8.50;99.90;;;;;;5050079;28;20017;-47
2023/03/20 04:38:15;;;;;;;17.88;3.55;;;8.60;99.90;;;;;;5049725;28;20040;-46
2023/03/20 04:40:42;;;;;;;15.27;2.90;;;8.50;99.90;;;;;;5032199;28;20489;-52
2023/03/20 04:43:07;;;;;;;18.88;2.60;;;8.60;99.90;;;;;;5051010;28;20036;-44
2023/03/20 04:45:33;;;;;;;19.33;2.88;;;8.60;99.90;;;;;;5049456;28;20028;-49
2023/03/20 04:47:58;;;;;;;22.77;3.38;;;8.60;99.90;;;;;;5054215;28;20057;-49
2023/03/20 04:50:24;;;;;;;27.90;4.32;;;8.60;99.90;;;;;;5054102;28;20033;-47
2023/03/20 04:52:50;;;;;;;20.30;3.47;;;8.60;99.90;;;;;;5053818;28;20447;-44
2023/03/20 04:55:15;;;;;;;20.98;2.78;;;8.60;99.90;;;;;;5053765;28;20025;-48
2023/03/20 04:57:41;;;;;;;20.60;3.17;;;8.60;99.90;;;;;;5053863;28;20029;-44
2023/03/20 05:00:07;;;;;;;18.45;3.50;;;8.60;99.90;;;;;;5053902;28;20053;-44
2023/03/20 05:02:33;;;;;;;18.33;2.60;;;8.60;99.90;;;;;;5053867;28;20035;-48
2023/03/20 05:04:58;;;;;;;22.40;3.22;;;8.60;99.90;;;;;;5053099;28;20025;-45
2023/03/20 05:07:24;;;;;;;21.83;3.15;;;8.70;99.90;;;;;;5053420;28;20496;-46
2023/03/20 05:09:49;;;;;;;24.45;3.38;;;8.70;99.90;;;;;;5035937;28;20083;-44
2023/03/20 05:12:16;;;;;;;20.55;2.88;;;8.70;99.90;;;;;;5053627;28;20381;-46
2023/03/20 05:14:41;;;;;;;19.50;3.60;;;8.70;99.90;;;;;;5051555;28;20024;-47
2023/03/20 05:17:07;;;;;;;20.75;2.95;;;8.80;99.90;;;;;;5053391;28;20071;-45
2023/03/20 05:19:33;;;;;;;22.77;4.53;;;8.70;99.90;;;;;;5035709;28;20044;-56
2023/03/20 05:21:58;;;;;;;20.25;3.83;;;8.70;99.90;;;;;;5053293;28;20072;-46
2023/03/20 05:24:24;;;;;;;19.55;3.17;;;8.80;99.90;;;;;;5053754;28;20056;-46
2023/03/20 05:26:50;;;;;;;21.83;4.53;;;8.80;99.90;;;;;;5053474;28;20033;-43
2023/03/20 05:29:16;;;;;;;23.80;3.45;;;8.80;99.90;;;;;;5053389;28;20083;-50
2023/03/20 05:31:41;;;;;;;24.10;3.70;;;8.80;99.90;;;;;;5053224;28;20083;-50
2023/03/20 05:34:07;;;;;;;26.80;3.33;;;8.80;99.90;;;;;;5053152;28;20385;-48
2023/03/20 05:36:32;;;;;;;19.10;3.80;;;8.80;99.90;;;;;;5053275;28;20053;-43
2023/03/20 05:38:58;;;;;;;21.77;3.55;;;8.80;99.90;;;;;;5053077;28;20116;-44
2023/03/20 05:41:24;;;;;;;13.15;3.88;;;8.80;99.90;;;;;;5053109;28;20370;-43
2023/03/20 05:43:49;;;;;;;15.65;3.13;;;8.80;99.90;;;;;;5046936;28;20478;-46
2023/03/20 05:46:15;;;;;;;23.00;3.53;;;8.90;99.90;;;;;;5052004;28;20024;-46
2023/03/20 05:48:40;;;;;;;21.38;3.08;;;8.90;99.90;;;;;;5053023;28;20025;-43
2023/03/20 05:51:06;;;;;;;23.75;4.70;;;8.90;99.90;;;;;;5052619;28;20020;-49
2023/03/20 05:53:32;;;;;;;19.00;2.80;;;8.80;99.90;;;;;;5052417;28;20082;-43
2023/03/20 05:55:58;;;;;;;19.23;3.30;;;8.90;99.90;;;;;;5052465;28;20390;-51
2023/03/20 05:58:23;;;;;;;11.88;2.47;;;8.80;99.90;;;;;;5052547;28;20025;-47
2023/03/20 06:00:49;;;;;;;17.67;3.40;;;8.90;99.90;;;;;;5052655;28;20121;-43
2023/03/20 06:03:15;;;;;;;20.33;3.15;;;8.90;99.90;;;;;;5034643;28;20178;-48
2023/03/20 06:05:41;;;;;;;30.17;4.35;;;9.00;99.90;;;;;;5052784;28;20071;-54
2023/03/20 06:08:06;;;;;;;17.73;3.40;;;8.90;99.90;;;;;;5052804;28;20021;-47
2023/03/20 06:10:32;;;;;;;21.73;4.43;;;8.90;99.90;;;;;;5052473;28;20017;-49
2023/03/20 06:13:00;;;;;;;21.48;3.33;;;9.00;99.90;;;;;;5052479;28;20036;-43
2023/03/20 06:15:29;;;;;;;19.52;3.53;;;9.00;99.90;;;;;;5050408;28;20092;-43
2023/03/20 06:17:55;;;;;;;22.83;3.47;;;9.00;99.90;;;;;;5052266;28;20037;-47
2023/03/20 06:20:21;;;;;;;25.42;4.47;;;9.00;99.90;;;;;;5052221;28;20115;-44
2023/03/20 06:22:47;;;;;;;25.30;3.75;;;9.00;99.90;;;;;;5051164;28;20092;-50
2023/03/20 06:25:13;;;;;;;18.40;3.58;;;9.10;99.90;;;;;;5051728;28;20147;-50
2023/03/20 06:27:38;;;;;;;18.17;2.60;;;9.10;99.90;;;;;;5051911;28;20078;-43
2023/03/20 06:30:05;;;;;;;18.60;3.03;;;9.10;99.90;;;;;;5051969;28;20029;-46
2023/03/20 06:32:31;;;;;;;19.75;3.90;;;9.10;99.90;;;;;;5051997;28;20031;-45
2023/03/20 06:34:57;;;;;;;16.33;2.95;;;9.20;99.90;;;;;;5034124;28;20029;-47
2023/03/20 06:37:22;;;;;;;21.48;3.25;;;9.20;99.90;;;;;;5034005;28;20017;-43
2023/03/20 06:39:48;;;;;;;29.92;6.13;;;9.20;99.90;;;;;;5051845;28;20041;-48
2023/03/20 06:42:15;;;;;;;24.30;3.85;;;9.20;99.90;;;;;;5051689;28;20086;-45
2023/03/20 06:44:41;;;;;;;27.42;4.07;;;9.20;99.90;;;;;;5042820;28;20116;-46
2023/03/20 06:47:07;;;;;;;19.88;5.00;;;9.20;99.90;;;;;;5051383;28;20121;-45
2023/03/20 06:49:32;;;;;;;30.67;3.80;;;9.20;99.90;;;;;;5051353;28;20028;-44
2023/03/20 06:51:58;;;;;;;17.80;3.15;;;9.20;99.90;;;;;;5051678;28;20032;-47
2023/03/20 06:54:24;;;;;;;27.75;3.78;;;9.20;99.90;;;;;;5051476;28;20573;-43
2023/03/20 06:56:50;;;;;;;27.30;4.78;;;9.20;99.90;;;;;;5048977;28;20729;-44
2023/03/20 06:59:16;;;;;;;22.92;3.75;;;9.20;99.90;;;;;;5046283;28;20036;-48
2023/03/20 07:01:42;;;;;;;24.77;4.38;;;9.20;99.90;;;;;;5030625;28;20021;-46
2023/03/20 07:04:08;;;;;;;27.70;3.67;;;9.10;99.90;;;;;;5040750;28;20500;-47
2023/03/20 07:06:33;;;;;;;31.33;4.60;;;9.20;99.90;;;;;;5039483;28;20021;-47
2023/03/20 07:09:00;;;;;;;21.73;3.90;;;9.20;99.90;;;;;;5036017;28;20100;-47
2023/03/20 07:11:26;;;;;;;19.15;3.58;;;9.10;99.90;;;;;;5043706;28;20100;-47
2023/03/20 07:13:52;;;;;;;23.23;3.88;;;9.10;99.90;;;;;;5037989;28;20072;-47
2023/03/20 07:16:18;;;;;;;16.98;2.83;;;9.10;99.90;;;;;;5046152;28;20017;-45
2023/03/20 07:18:43;;;;;;;35.42;4.75;;;9.10;99.90;;;;;;5043268;28;20094;-51
2023/03/20 07:21:13;;;;;;;29.00;3.63;;;9.20;99.90;;;;;;5044005;28;20021;-47
2023/03/20 07:23:39;;;;;;;17.73;3.20;;;9.20;99.90;;;;;;5045036;28;20056;-47
2023/03/20 07:26:05;;;;;;;16.13;3.08;;;9.20;99.90;;;;;;5042644;28;20040;-52
2023/03/20 07:28:31;;;;;;;18.67;3.50;;;9.20;99.90;;;;;;5046065;28;20432;-45
2023/03/20 07:30:56;;;;;;;22.48;3.92;;;9.30;99.90;;;;;;5041276;28;20025;-51
2023/03/20 07:33:22;;;;;;;13.98;3.17;;;9.30;99.90;;;;;;5046232;28;20021;-46
2023/03/20 07:35:52;;;;;;;17.92;3.85;;;9.30;99.90;;;;;;5042771;28;20088;-46
2023/03/20 07:38:18;;;;;;;13.70;3.00;;;9.30;99.90;;;;;;5045156;28;20013;-49
2023/03/20 07:40:44;;;;;;;14.32;3.10;;;9.30;99.90;;;;;;5044060;28;20328;-46
2023/03/20 07:43:09;;;;;;;12.35;3.15;;;9.30;99.90;;;;;;5040688;28;20103;-45
2023/03/20 07:45:35;;;;;;;15.63;3.35;;;9.30;99.90;;;;;;5040168;28;20052;-47
2023/03/20 07:48:00;;;;;;;9.45;2.60;;;9.30;99.90;;;;;;5047481;28;20051;-46
2023/03/20 07:50:26;;;;;;;10.90;2.55;;;9.30;99.90;;;;;;5049140;28;20025;-45
2023/03/20 07:52:52;;;;;;;16.60;2.72;;;9.30;99.90;;;;;;5019989;28;20033;-55
2023/03/20 07:55:17;;;;;;;14.77;2.92;;;9.40;99.90;;;;;;5049395;28;20031;-48
2023/03/20 07:57:43;;;;;;;12.27;3.00;;;9.30;99.90;;;;;;5049257;28;20125;-50
2023/03/20 08:00:09;;;;;;;9.90;2.80;;;9.40;99.90;;;;;;5040154;28;20029;-46
2023/03/20 08:02:35;;;;;;;10.98;2.85;;;9.30;99.90;;;;;;5033611;28;20151;-49
2023/03/20 08:05:01;;;;;;;12.25;3.22;;;9.30;99.90;;;;;;5034295;28;20434;-46
2023/03/20 08:07:28;;;;;;;15.25;3.58;;;9.40;99.90;;;;;;5041580;28;20486;-55
2023/03/20 08:09:54;;;;;;;13.98;3.50;;;9.40;99.90;;;;;;5049099;28;20021;-47
2023/03/20 08:12:23;;;;;;;16.17;3.22;;;9.40;99.90;;;;;;5031095;28;20394;-47
2023/03/20 08:14:49;;;;;;;16.63;3.33;;;9.40;99.90;;;;;;5029789;28;20171;-52
2023/03/20 08:17:15;;;;;;;15.63;3.58;;;9.40;99.90;;;;;;5030304;28;20112;-46
2023/03/20 08:19:40;;;;;;;13.90;3.90;;;9.40;99.90;;;;;;5030618;28;20044;-50
2023/03/20 08:22:06;;;;;;;16.58;4.10;;;9.40;99.90;;;;;;5031157;28;20086;-52
2023/03/20 08:24:32;;;;;;;17.17;4.15;;;9.40;99.90;;;;;;5035447;28;20112;-47
2023/03/20 08:26:57;;;;;;;17.00;4.05;;;9.40;99.90;;;;;;5038368;28;20120;-57
2023/03/20 08:29:23;;;;;;;10.77;3.40;;;9.40;99.90;;;;;;5049724;28;20538;-46
2023/03/20 08:31:48;;;;;;;9.48;3.35;;;9.40;99.90;;;;;;5040741;28;20501;-45
2023/03/20 08:34:14;;;;;;;17.73;3.95;;;9.40;99.90;;;;;;5044610;28;20174;-49
2023/03/20 08:36:40;;;;;;;13.38;3.35;;;9.40;99.90;;;;;;5046937;28;20025;-46
2023/03/20 08:39:07;;;;;;;13.05;5.00;;;9.40;99.90;;;;;;5040555;28;20083;-46
2023/03/20 08:41:36;;;;;;;16.33;4.18;;;9.50;99.90;;;;;;5036079;28;20088;-52
2023/03/20 08:44:02;;;;;;;17.88;4.03;;;9.50;99.90;;;;;;5039730;28;20025;-48
2023/03/20 08:46:27;;;;;;;21.13;4.65;;;9.60;99.90;;;;;;5040456;28;20079;-49
2023/03/20 08:48:53;;;;;;;28.27;5.55;;;9.60;99.90;;;;;;5049360;28;20030;-48
2023/03/20 08:51:19;;;;;;;25.90;5.07;;;9.60;99.90;;;;;;5043946;28;20022;-47
2023/03/20 08:53:45;;;;;;;22.35;4.95;;;9.60;99.90;;;;;;5046753;28;20021;-45
2023/03/20 08:56:11;;;;;;;14.38;3.55;;;9.70;99.90;;;;;;5045051;28;20033;-48
2023/03/20 08:58:37;;;;;;;19.08;4.55;;;9.60;99.90;;;;;;5045184;28;20020;-49
2023/03/20 09:01:04;;;;;;;13.73;4.18;;;9.70;99.90;;;;;;5048013;28;20394;-45
2023/03/20 09:03:30;;;;;;;24.40;4.35;;;9.70;99.90;;;;;;5039250;28;20041;-50
2023/03/20 09:05:56;;;;;;;20.08;4.20;;;9.70;99.90;;;;;;5023255;28;20033;-54
2023/03/20 09:08:22;;;;;;;17.52;5.03;;;9.70;99.90;;;;;;5045901;28;20021;-46
2023/03/20 09:10:48;;;;;;;21.25;4.70;;;9.80;99.90;;;;;;5047075;28;20028;-47
2023/03/20 09:13:14;;;;;;;22.55;4.63;;;9.80;99.90;;;;;;5047943;28;20120;-46
2023/03/20 09:15:39;;;;;;;17.67;4.72;;;9.90;99.90;;;;;;5046220;28;20025;-45
2023/03/20 09:18:05;;;;;;;18.30;5.13;;;9.90;99.90;;;;;;5029364;28;20056;-46
2023/03/20 09:20:31;;;;;;;15.07;4.50;;;10.00;99.90;;;;;;5047910;28;20038;-48
2023/03/20 09:22:56;;;;;;;17.08;4.20;;;10.00;99.90;;;;;;5047706;28;20374;-51
2023/03/20 09:25:22;;;;;;;17.60;4.22;;;9.90;99.90;;;;;;5048818;28;20382;-49
2023/03/20 09:27:54;;;;;;;19.33;3.88;;;10.00;99.90;;;;;;5046926;28;20363;-46
2023/03/20 09:30:21;;;;;;;25.90;4.22;;;10.00;99.90;;;;;;5047262;28;20036;-49
2023/03/20 09:32:47;;;;;;;21.27;4.15;;;10.00;99.90;;;;;;5033073;28;20047;-47
2023/03/20 09:35:12;;;;;;;15.93;3.97;;;10.00;99.90;;;;;;5049855;28;20065;-48
2023/03/20 09:37:38;;;;;;;19.33;4.03;;;10.00;99.90;;;;;;5049189;28;20158;-45
2023/03/20 09:40:04;;;;;;;21.13;4.32;;;10.00;99.90;;;;;;5045073;28;20052;-46
2023/03/20 09:42:49;;;;;;;19.52;4.40;;;10.00;99.90;;;;;;5049719;28;20027;-54
2023/03/20 09:45:26;;;;;;;24.65;3.92;;;10.00;99.90;;;;;;5044190;28;20029;-48
2023/03/20 09:48:03;;;;;;;16.10;4.25;;;10.10;99.90;;;;;;5046097;28;20017;-48
2023/03/20 09:50:43;;;;;;;22.13;3.53;;;10.10;99.90;;;;;;5029354;28;20013;-51
2023/03/20 09:53:26;;;;;;;15.55;3.50;;;10.30;99.90;;;;;;5048389;28;20025;-47
2023/03/20 09:55:53;;;;;;;11.07;3.60;;;10.30;99.90;;;;;;5028089;28;20047;-47
2023/03/20 09:58:30;;;;;;;11.07;3.15;;;10.30;99.90;;;;;;5051938;28;20025;-46
2023/03/20 10:00:58;;;;;;;17.63;3.45;;;10.40;99.90;;;;;;5051260;28;20033;-46
2023/03/20 10:03:41;;;;;;;16.05;3.97;;;10.40;99.90;;;;;;5045363;28;20033;-45
2023/03/20 10:06:13;;;;;;;18.20;3.97;;;10.40;99.90;;;;;;5050412;28;20041;-49
2023/03/20 10:08:39;;;;;;;9.23;3.13;;;10.50;99.90;;;;;;5049208;28;20100;-57
2023/03/20 10:11:40;;;;;;;12.88;3.38;;;10.50;99.90;;;;;;5051309;28;20021;-46
2023/03/20 10:14:21;;;;;;;20.90;3.13;;;10.50;99.90;;;;;;5040824;28;20052;-46
2023/03/20 10:16:52;;;;;;;14.73;4.43;;;10.60;99.90;;;;;;5051424;28;20501;-45
2023/03/20 10:19:40;;;;;;;16.27;3.70;;;10.50;99.90;;;;;;5049695;28;20108;-45
2023/03/20 10:22:34;;;;;;;21.10;3.85;;;10.60;99.90;;;;;;5047543;28;20025;-46
2023/03/20 10:25:20;;;;;;;17.58;3.53;;;10.60;99.90;;;;;;5040297;28;20071;-46
2023/03/20 10:28:12;;;;;;;14.55;3.25;;;10.60;99.90;;;;;;5043720;28;20060;-49
2023/03/20 10:30:49;;;;;;;17.88;3.63;;;10.60;99.90;;;;;;5038404;28;20033;-46
2023/03/20 10:33:50;;;;;;;15.30;3.00;;;10.60;99.90;;;;;;5047251;28;20028;-45
2023/03/20 10:36:25;;;;;;;16.67;3.40;;;10.60;99.90;;;;;;5047611;28;20025;-47
2023/03/20 10:38:59;;;;;;;18.63;3.42;;;10.60;99.90;;;;;;5045629;28;20039;-50
2023/03/20 10:41:31;;;;;;;17.85;3.53;;;10.50;99.90;;;;;;5038208;28;20125;-53
2023/03/20 10:43:59;;;;;;;17.70;4.18;;;10.40;99.90;;;;;;5044424;28;20510;-48
2023/03/20 10:46:30;;;;;;;18.08;3.50;;;10.30;99.90;;;;;;5043353;28;20076;-49
2023/03/20 10:48:58;;;;;;;14.45;3.60;;;10.30;99.90;;;;;;5040588;28;20013;-45
2023/03/20 10:51:45;;;;;;;14.25;3.60;;;10.30;99.90;;;;;;5040248;28;20078;-46
2023/03/20 10:54:41;;;;;;;17.50;4.35;;;10.40;99.90;;;;;;5043742;28;20114;-46
2023/03/20 10:57:21;;;;;;;13.80;3.75;;;10.40;99.90;;;;;;5031768;28;20098;-46
2023/03/20 10:59:50;;;;;;;17.02;3.60;;;10.40;99.90;;;;;;5041598;28;20071;-46
2023/03/20 11:02:18;;;;;;;25.15;3.97;;;10.30;99.90;;;;;;5031279;28;20025;-48
2023/03/20 11:04:44;;;;;;;16.15;4.55;;;10.30;99.90;;;;;;5032434;28;20013;-50
2023/03/20 11:07:34;;;;;;;18.13;3.63;;;10.30;99.90;;;;;;5045099;28;20048;-47
2023/03/20 11:10:09;;;;;;;23.10;3.80;;;10.30;99.90;;;;;;5025317;28;20104;-48
2023/03/20 11:12:39;;;;;;;16.95;3.75;;;10.30;99.90;;;;;;5042267;28;20037;-50
2023/03/20 11:15:25;;;;;;;18.52;3.42;;;10.30;99.90;;;;;;5043260;28;20508;-48
2023/03/20 11:18:03;;;;;;;21.38;3.80;;;10.40;99.90;;;;;;5044660;28;20052;-46
2023/03/20 11:20:36;;;;;;;17.85;3.05;;;10.40;99.90;;;;;;5042942;28;20120;-47
2023/03/20 11:23:04;;;;;;;12.10;2.90;;;10.40;99.90;;;;;;5046995;28;20029;-49
2023/03/20 11:25:37;;;;;;;17.45;3.28;;;10.30;99.90;;;;;;5043202;28;20496;-48
2023/03/20 11:28:19;;;;;;;12.90;3.33;;;10.30;99.90;;;;;;5042180;28;20532;-45
2023/03/20 11:30:45;;;;;;;13.23;3.67;;;10.30;99.90;;;;;;5042445;28;20036;-47
2023/03/20 11:33:11;;;;;;;12.88;4.10;;;10.40;99.90;;;;;;5041505;28;20059;-48
2023/03/20 11:35:37;;;;;;;10.40;3.25;;;10.50;99.90;;;;;;5048063;28;20033;-48
2023/03/20 11:38:19;;;;;;;16.70;3.38;;;10.50;99.90;;;;;;5045773;28;20067;-48
2023/03/20 11:40:47;;;;;;;15.05;3.10;;;10.50;99.90;;;;;;5044502;28;20063;-46
2023/03/20 11:43:17;;;;;;;13.90;3.22;;;10.50;99.90;;;;;;5045501;28;20371;-45
2023/03/20 11:45:46;;;;;;;12.95;3.63;;;10.50;99.90;;;;;;5046845;28;20485;-48
2023/03/20 11:48:24;;;;;;;14.73;3.45;;;10.50;99.90;;;;;;5042348;28;20028;-47
2023/03/20 11:51:07;;;;;;;16.45;3.97;;;10.50;99.90;;;;;;5041184;28;20056;-46
2023/03/20 11:53:42;;;;;;;12.70;3.22;;;10.60;99.90;;;;;;5050219;28;20119;-52
2023/03/20 11:56:19;;;;;;;19.15;4.40;;;10.60;99.90;;;;;;5044117;28;20486;-48
2023/03/20 11:59:12;;;;;;;22.45;5.47;;;10.60;99.90;;;;;;5048733;28;20059;-49
2023/03/20 12:01:50;;;;;;;16.48;3.67;;;10.70;99.90;;;;;;5034900;28;20032;-51
2023/03/20 12:04:27;;;;;;;22.48;4.00;;;10.80;99.90;;;;;;5030908;28;20029;-45
2023/03/20 12:06:59;;;;;;;21.55;3.83;;;10.90;99.90;;;;;;5037025;28;20024;-49
2023/03/20 12:09:25;;;;;;;16.20;3.95;;;11.00;99.90;;;;;;5044183;28;20057;-46
2023/03/20 12:11:50;;;;;;;15.93;4.03;;;11.10;99.90;;;;;;5044576;28;20049;-48
2023/03/20 12:14:29;;;;;;;20.02;3.50;;;11.10;99.90;;;;;;5046238;28;20025;-45
2023/03/20 12:17:16;;;;;;;17.52;3.50;;;11.10;99.90;;;;;;5042752;28;20049;-46
2023/03/20 12:19:44;;;;;;;18.17;3.90;;;11.10;99.90;;;;;;5045781;28;20043;-45
2023/03/20 12:22:38;;;;;;;14.18;2.95;;;11.00;99.90;;;;;;5025102;28;20049;-45
2023/03/20 12:25:52;;;;;;;17.80;4.00;;;10.90;99.90;;;;;;5043057;28;20156;-46
2023/03/20 12:28:26;;;;;;;10.68;3.20;;;10.90;99.90;;;;;;5030643;28;20076;-46
2023/03/20 12:31:29;;;;;;;11.68;2.80;;;10.80;99.90;;;;;;5045597;28;20014;-45
2023/03/20 12:34:05;;;;;;;7.68;2.72;;;10.80;99.90;;;;;;5023574;28;20524;-45
2023/03/20 12:36:40;;;;;;;14.20;2.67;;;10.70;99.90;;;;;;5038644;28;20037;-46
2023/03/20 12:39:13;;;;;;;9.93;2.65;;;10.70;99.90;;;;;;5038950;28;20033;-45
2023/03/20 12:41:57;;;;;;;9.00;3.13;;;10.70;99.90;;;;;;5028549;28;20025;-47
2023/03/20 12:44:25;;;;;;;8.73;2.45;;;10.70;99.90;;;;;;5045029;28;20029;-44
2023/03/20 12:47:22;;;;;;;7.72;2.25;;;10.80;99.90;;;;;;5044004;28;20465;-46
2023/03/20 12:50:06;;;;;;;7.38;2.60;;;10.80;99.90;;;;;;5038251;28;20060;-45
2023/03/20 12:53:02;;;;;;;9.15;2.75;;;10.70;99.90;;;;;;5042136;28;20030;-45
2023/03/20 12:55:44;;;;;;;9.77;2.80;;;10.70;99.90;;;;;;5045172;28;20462;-45
2023/03/20 12:58:22;;;;;;;10.15;3.05;;;10.70;99.90;;;;;;5042140;28;20029;-47
2023/03/20 13:00:53;;;;;;;13.25;2.80;;;10.70;99.90;;;;;;5045439;28;20064;-48
2023/03/20 13:03:37;;;;;;;9.57;2.35;;;10.60;99.90;;;;;;5043572;28;20514;-48
2023/03/20 13:06:14;;;;;;;11.25;2.50;;;10.60;99.90;;;;;;5042320;28;20103;-54